Flight Track Log - Related Links

Times and Time Zones

All times are in EDT time to prevent confusion due to time zone crossing. See the N5219N flight status page for this flight to view local times or setup timezone preferences in your user account.

Time Position Orientation Groundspeed Altitude Reporting Facility
EDT Latitude Longitude Course Direction KTS MPH feet Rate Location/Type
Tue 03:16:00 PM 32.4689 -90.2314 328° Northwest  Level Estimated
Tue 03:17:00 PM 32.5011 -90.2452 340° North  Level FlightAware Approximate
Tue 03:18:00 PM 32.5332 -90.2590 340° North  Level FlightAware Approximate
Tue 03:19:00 PM 32.5654 -90.2728 340° North  Level FlightAware Approximate
Tue 03:20:00 PM 32.5975 -90.2866 340° North  Level FlightAware Approximate
Tue 03:21:00 PM 32.6236 -90.3129 325° Northwest  Level Estimated
Tue 03:22:00 PM 32.6411 -90.3481 301° West  Level FlightAware Approximate
Tue 03:23:00 PM 32.6586 -90.3832 301° West  Level FlightAware Approximate
Tue 03:23:27 PM 32.4861 -90.3278 320° Northwest 105 121 8,000  Level Memphis Center
Tue 03:24:00 PM 32.6761 -90.4184 301° West  Level FlightAware Approximate
Tue 03:24:27 PM 32.5111 -90.3500 323° Northwest 105 121 8,000  Level Memphis Center
Tue 03:25:00 PM 32.6935 -90.4536 301° West  Level FlightAware Approximate
Tue 03:25:27 PM 32.5361 -90.3722 323° Northwest 110 127 8,000  Level Memphis Center
Tue 03:26:00 PM 32.7110 -90.4889 301° West  Level FlightAware Approximate
Tue 03:26:27 PM 32.5614 -90.3967 321° Northwest 110 127 7,900  Level Memphis Center
Tue 03:27:00 PM 32.6935 -90.4536 120° Southeast  Level FlightAware Approximate
Tue 03:27:27 PM 32.5842 -90.4189 321° Northwest 110 127 8,000  Level Memphis Center
Tue 03:28:00 PM 32.7104 -90.4770 320° Northwest  Level FlightAware Approximate
Tue 03:28:27 PM 32.6072 -90.4411 321° Northwest 110 127 8,000  Level Memphis Center
Tue 03:29:27 PM 32.6322 -90.4658 320° Northwest 110 127 8,000  Level Memphis Center
Tue 03:30:27 PM 32.6572 -90.4856 326° Northwest 110 127 8,000 -50 Level Memphis Center
Tue 03:31:27 PM 32.6844 -90.5103 323° Northwest 110 127 7,900 -50 Descending Memphis Center
Tue 03:32:27 PM 32.7072 -90.5300 324° Northwest 110 127 7,900 50 Level Memphis Center
Tue 03:33:27 PM 32.7322 -90.5550 320° Northwest 110 127 8,000 50 Climbing Memphis Center
Tue 03:34:27 PM 32.7572 -90.5772 323° Northwest 110 127 8,000  Level Memphis Center
Tue 03:35:27 PM 32.7803 -90.6044 315° West 110 127 8,000  Level Memphis Center
Tue 03:36:27 PM 32.8053 -90.6292 320° Northwest 110 127 8,000  Level Memphis Center
Tue 03:37:27 PM 32.8261 -90.6539 315° West 110 127 8,000 -50 Level Memphis Center
Tue 03:38:27 PM 32.8511 -90.6786 320° Northwest 116 133 7,900  Descending Memphis Center
Tue 03:39:27 PM 32.8719 -90.7061 312° West 116 133 8,000 50 Climbing Memphis Center
Tue 03:40:27 PM 32.8947 -90.7308 318° Northwest 116 133 8,000  Level Memphis Center
Tue 03:41:27 PM 32.9197 -90.7558 320° Northwest 116 133 8,000  Level Memphis Center
Tue 03:42:27 PM 32.9447 -90.7806 320° Northwest 116 133 8,000  Level Memphis Center
Tue 03:43:27 PM 32.9739 -90.8031 327° Northwest 116 133 8,000 -50 Level Memphis Center
Tue 03:44:27 PM 32.9989 -90.8303 318° Northwest 116 133 7,900  Descending Memphis Center
Tue 03:45:27 PM 33.0258 -90.8528 325° Northwest 116 133 8,000  Climbing Memphis Center
Tue 03:46:27 PM 33.0508 -90.8778 320° Northwest 116 133 7,900 -50 Descending Memphis Center
Tue 03:47:27 PM 33.0758 -90.9028 320° Northwest 116 133 7,900  Level Memphis Center
Tue 03:48:27 PM 33.1028 -90.9275 322° Northwest 116 133 7,900 50 Level Memphis Center
Tue 03:49:27 PM 33.1278 -90.9475 326° Northwest 116 133 8,000 50 Climbing Memphis Center
Tue 03:50:27 PM 33.1506 -90.9750 315° West 116 133 8,000  Level Memphis Center
Tue 03:51:27 PM 33.1756 -91.0025 317° Northwest 116 133 8,000  Level Memphis Center
Tue 03:52:27 PM 33.1961 -91.0325 309° West 121 139 8,000  Level Memphis Center
Tue 03:53:27 PM 33.2189 -91.0600 315° West 121 139 8,000  Level Memphis Center
Tue 03:54:27 PM 33.2481 -91.0850 324° Northwest 121 139 8,000  Level Memphis Center
Tue 03:55:27 PM 33.2731 -91.1075 323° Northwest 116 133 8,000  Level Memphis Center
Tue 03:56:27 PM 33.3022 -91.1303 327° Northwest 116 133 8,000  Level Memphis Center
Tue 03:57:27 PM 33.3292 -91.1553 322° Northwest 116 133 8,000  Level Memphis Center
Tue 03:58:27 PM 33.3561 -91.1781 325° Northwest 116 133 8,000  Level Memphis Center
Tue 03:59:27 PM 33.3808 -91.2006 323° Northwest 111 128 8,000  Level Memphis Center
Tue 04:00:27 PM 33.4081 -91.2233 325° Northwest 111 128 8,000  Level Memphis Center
Tue 04:01:27 PM 33.4328 -91.2508 317° Northwest 111 128 8,000  Level Memphis Center
Tue 04:02:27 PM 33.4556 -91.2761 317° Northwest 111 128 8,000  Level Memphis Center
Tue 04:03:27 PM 33.4825 -91.3011 322° Northwest 117 135 8,000  Level Memphis Center
Tue 04:04:27 PM 33.5075 -91.3289 317° Northwest 117 135 8,000  Level Memphis Center
Tue 04:05:27 PM 33.5281 -91.3564 312° West 117 135 8,000  Level Memphis Center
Tue 04:06:27 PM 33.5528 -91.3817 320° Northwest 117 135 8,000 50 Level Memphis Center
Tue 04:07:27 PM 33.5797 -91.4069 322° Northwest 117 135 8,100  Climbing Memphis Center
Tue 04:08:27 PM 33.6025 -91.4322 317° Northwest 117 135 8,000 -50 Descending Memphis Center
Tue 04:09:27 PM 33.6275 -91.4550 323° Northwest 117 135 8,000  Level Memphis Center
Tue 04:10:27 PM 33.6481 -91.4825 312° West 117 135 8,000  Level Memphis Center
Tue 04:11:27 PM 33.6750 -91.5053 325° Northwest 117 135 8,000  Level Memphis Center
Tue 04:12:27 PM 33.6978 -91.5308 317° Northwest 117 135 8,000  Level Memphis Center
Tue 04:13:27 PM 33.7183 -91.5533 318° Northwest 117 135 8,000  Level Memphis Center
Tue 04:14:27 PM 33.7411 -91.5761 320° Northwest 117 135 8,000  Level Memphis Center
Tue 04:15:27 PM 33.7617 -91.6042 311° West 117 135 8,000  Level Memphis Center
Tue 04:16:27 PM 33.7864 -91.6269 323° Northwest 117 135 8,000  Level Memphis Center
Tue 04:17:27 PM 33.8072 -91.6497 318° Northwest 112 129 8,000  Level Memphis Center
Tue 04:18:27 PM 33.8297 -91.6750 317° Northwest 112 129 8,000  Level Memphis Center
Tue 04:19:27 PM 33.8547 -91.6978 323° Northwest 112 129 8,000  Level Memphis Center
Tue 04:20:27 PM 33.8814 -91.7258 319° Northwest 121 139 8,000  Level Memphis Center
Tue 04:21:27 PM 33.9064 -91.7461 326° Northwest 121 139 8,000  Level Memphis Center
Tue 04:22:06 PM 33.9186 -91.7589 319° Northwest 110 127 8,000  Level Memphis Center
Tue 04:22:27 PM 33.9311 -91.7692 326° Northwest 116 133 8,000  Level Memphis Center
Tue 04:23:27 PM 33.9558 -91.7897 325° Northwest 110 127 8,000  Level Memphis Center
Tue 04:23:30 PM 33.9536 -91.7919 220° Southwest 110 127 8,000  Level Memphis Center
Tue 04:24:19 PM 33.9764 -91.8125 323° Northwest 111 128 8,000  Level Memphis Center
Tue 04:24:27 PM 33.9828 -91.8150 342° North 110 127 8,000  Level Memphis Center
Tue 04:25:27 PM 34.0056 -91.8331 327° Northwest 105 121 8,000  Level Memphis Center
Tue 04:26:21 PM 34.0261 -91.8533 321° Northwest 109 125 8,000  Level Memphis Center
Tue 04:26:27 PM 34.0322 -91.8561 339° North 110 127 8,000  Level Memphis Center
Tue 04:27:27 PM 34.0508 -91.8814 312° West 110 127 8,000  Level Memphis Center
Tue 04:27:33 PM 34.0508 -91.8839 270° West 111 128 8,000  Level Memphis Center
Tue 04:28:27 PM 34.0756 -91.9069 322° Northwest 110 127 8,000  Level Memphis Center
Tue 04:28:28 PM 34.0733 -91.9094 223° Southwest 112 129 8,000  Level Memphis Center
Tue 04:29:27 PM 34.1003 -91.9300 328° Northwest 110 127 8,000  Level Memphis Center
Tue 04:29:28 PM 34.0961 -91.9350 225° Southwest 114 131 8,000  Level Memphis Center
Tue 04:30:27 PM 34.1250 -91.9556 330° Northwest 110 127 8,000  Level Memphis Center
Tue 04:31:27 PM 34.1497 -91.9786 322° Northwest 110 127 8,000  Level Memphis Center
Tue 04:32:25 PM 34.1681 -92.0039 311° West 112 129 8,000  Level Memphis Center
Tue 04:32:27 PM 34.1722 -92.0042 357° North 110 127 8,000  Level Memphis Center
Tue 04:33:25 PM 34.1908 -92.0294 312° West 111 128 8,000  Level Memphis Center
Tue 04:33:27 PM 34.1950 -92.0269 26° Northeast 110 127 8,000  Level Memphis Center
Tue 04:34:27 PM 34.2219 -92.0478 327° Northwest 110 127 8,000  Level Memphis Center
Tue 04:34:38 PM 34.2217 -92.0553 267° West 111 128 8,000  Level Memphis Center
Tue 04:35:27 PM 34.2467 -92.0683 337° Northwest 110 127 8,000  Level Memphis Center
Tue 04:35:39 PM 34.2464 -92.0783 268° West 111 128 8,000  Level Memphis Center
Tue 04:36:27 PM 34.2714 -92.0914 337° Northwest 110 127 8,000  Level Memphis Center
Tue 04:36:39 PM 34.2733 -92.0989 287° West 111 128 8,000  Level Memphis Center
Tue 04:37:40 PM 34.2981 -92.1222 322° Northwest 112 129 8,000  Level Memphis Center
Tue 04:38:41 PM 34.3228 -92.1503 317° Northwest 114 131 8,000  Level Memphis Center
Tue 04:39:35 PM 34.3411 -92.1733 314° West 113 130 8,000  Level Memphis Center
Tue 04:40:36 PM 34.3636 -92.1989 317° Northwest 113 130 8,000 50 Level Memphis Center
Tue 04:41:36 PM 34.3906 -92.2247 322° Northwest 115 132 8,100  Climbing Memphis Center
Tue 04:42:37 PM 34.4131 -92.2503 317° Northwest 115 132 8,000  Descending Memphis Center
Tue 04:43:38 PM 34.4378 -92.2761 319° Northwest 112 129 8,100  Climbing Memphis Center
Tue 04:44:44 PM 34.4644 -92.3044 319° Northwest 115 132 8,000 -50 Descending Memphis Center
Tue 04:45:39 PM 34.4869 -92.3275 320° Northwest 121 139 8,000  Level Memphis Center
Tue 04:46:33 PM 34.5075 -92.3483 320° Northwest 118 136 8,000  Level Memphis Center
Tue 04:47:34 PM 34.5364 -92.3742 324° Northwest 114 131 8,000  Level Memphis Center
Tue 04:48:29 PM 34.5567 -92.3972 317° Northwest 110 127 8,000 55 Level Memphis Center
Tue 04:49:23 PM 34.5794 -92.4206 320° Northwest 111 128 8,100 52 Climbing Memphis Center
Tue 04:50:24 PM 34.5997 -92.4461 314° West 110 127 8,100  Level Memphis Center
Tue 04:51:25 PM 34.6264 -92.4697 324° Northwest 113 130 8,100 -50 Level Memphis Center
Tue 04:52:25 PM 34.6469 -92.4928 317° Northwest 110 127 8,000 -50 Descending Memphis Center
Tue 04:53:26 PM 34.6736 -92.5186 321° Northwest 108 124 8,000  Level Memphis Center
Tue 04:54:26 PM 34.6942 -92.5419 317° Northwest 109 125 8,000  Level Memphis Center
Tue 04:55:33 PM 34.7228 -92.5706 321° Northwest 114 131 8,000  Level Memphis Center
Tue 04:56:34 PM 34.7453 -92.5939 320° Northwest 109 125 8,000  Level Memphis Center
Tue 04:56:52 PM 34.7536 -92.5992 333° Northwest 119 137 8,000  Level Memphis Center
Tue 04:57:52 PM 34.7781 -92.6250 319° Northwest 125 144 8,000  Level Memphis Center
Tue 04:58:52 PM 34.8047 -92.6511 321° Northwest 130 150 8,000  Level Memphis Center
Tue 04:59:52 PM 34.8294 -92.6794 317° Northwest 130 150 8,000  Level Memphis Center
Tue 05:00:52 PM 34.8561 -92.7056 321° Northwest 130 150 8,000  Level Memphis Center
Tue 05:01:52 PM 34.8825 -92.7317 321° Northwest 130 150 8,000  Level Memphis Center
Tue 05:02:52 PM 34.9092 -92.7578 321° Northwest 130 150 8,000  Level Memphis Center
Tue 05:03:52 PM 34.9339 -92.7839 319° Northwest 125 144 8,000  Level Memphis Center
Tue 05:04:51 PM 34.9606 -92.8072 324° Northwest 125 144 8,000  Level Memphis Center
Tue 05:05:52 PM 34.9850 -92.8333 319° Northwest 125 144 8,000  Level Memphis Center
Tue 05:06:52 PM 35.0053 -92.8594 313° West 115 132 8,000  Level Memphis Center
Tue 05:07:52 PM 35.0278 -92.8853 317° Northwest 115 132 8,000  Level Memphis Center
Tue 05:08:52 PM 35.0522 -92.9114 319° Northwest 115 132 8,000  Level Memphis Center
Tue 05:09:52 PM 35.0725 -92.9375 314° West 115 132 8,000  Level Memphis Center
Tue 05:10:52 PM 35.0972 -92.9611 322° Northwest 115 132 8,000  Level Memphis Center
Tue 05:11:52 PM 35.1194 -92.9844 319° Northwest 115 132 8,000  Level Memphis Center
Tue 05:12:52 PM 35.1439 -93.0108 319° Northwest 115 132 8,000  Level Memphis Center
Tue 05:13:52 PM 35.1664 -93.0369 317° Northwest 115 132 8,000 50 Level Memphis Center
Tue 05:14:52 PM 35.1889 -93.0631 317° Northwest 115 132 8,100  Climbing Memphis Center
Tue 05:15:52 PM 35.2111 -93.0892 316° Northwest 115 132 8,000 -50 Descending Memphis Center
Tue 05:16:52 PM 35.2336 -93.1153 317° Northwest 115 132 8,000  Level Memphis Center
Tue 05:17:52 PM 35.2581 -93.1414 319° Northwest 115 132 8,000  Level Memphis Center
Tue 05:18:52 PM 35.2825 -93.1653 321° Northwest 115 132 8,000 50 Level Memphis Center
Tue 05:19:52 PM 35.3069 -93.1889 322° Northwest 115 132 8,100  Climbing Memphis Center
Tue 05:20:52 PM 35.3336 -93.2128 324° Northwest 115 132 8,000 -50 Descending Memphis Center
Tue 05:21:52 PM 35.3558 -93.2389 316° Northwest 115 132 8,000  Level Memphis Center
Tue 05:22:52 PM 35.3825 -93.2653 321° Northwest 115 132 8,000 50 Level Memphis Center
Tue 05:23:52 PM 35.4089 -93.2892 324° Northwest 115 132 8,100 50 Climbing Memphis Center
Tue 05:24:52 PM 35.4333 -93.3156 319° Northwest 115 132 8,100  Level Memphis Center
Tue 05:25:52 PM 35.4556 -93.3417 316° Northwest 115 132 8,100  Level Memphis Center
Tue 05:26:52 PM 35.4781 -93.3706 314° West 115 132 8,100 -50 Level Memphis Center
Tue 05:27:52 PM 35.5003 -93.3969 316° Northwest 115 132 8,000 -50 Descending Memphis Center
Tue 05:28:52 PM 35.5267 -93.4233 321° Northwest 115 132 8,000 -50 Level Memphis Center
Tue 05:29:52 PM 35.5511 -93.4522 316° Northwest 115 132 7,900  Descending Memphis Center
Tue 05:30:52 PM 35.5775 -93.4764 323° Northwest 115 132 8,000 50 Climbing Memphis Center
Tue 05:31:52 PM 35.6039 -93.5003 324° Northwest 115 132 8,000  Level Memphis Center
Tue 05:32:52 PM 35.6261 -93.5292 313° West 115 132 8,000  Level Memphis Center
Tue 05:33:52 PM 35.6528 -93.5533 324° Northwest 115 132 8,000 50 Level Memphis Center
Tue 05:34:52 PM 35.6792 -93.5797 321° Northwest 115 132 8,100 50 Climbing Memphis Center
Tue 05:35:52 PM 35.6992 -93.6086 310° West 115 132 8,100 -250 Level Memphis Center
Tue 05:36:52 PM 35.7192 -93.6428 306° West 115 132 7,600 -400 Descending Memphis Center
Tue 05:37:52 PM 35.7414 -93.6692 316° Northwest 115 132 7,300 -400 Descending Memphis Center
Tue 05:38:52 PM 35.7594 -93.7006 305° West 115 132 6,800 -500 Descending Memphis Center
Tue 05:39:52 PM 35.7814 -93.7322 311° West 115 132 6,300 -500 Descending Memphis Center
Tue 05:40:52 PM 35.8014 -93.7664 306° West 115 132 5,800 -500 Descending Memphis Center
Tue 05:41:52 PM 35.8192 -93.8003 303° West 115 132 5,300 -450 Descending Memphis Center
Tue 05:42:52 PM 35.8414 -93.8319 311° West 121 139 4,900 -350 Descending Memphis Center
Tue 05:43:52 PM 35.8614 -93.8608 311° West 121 139 4,600 -300 Descending Memphis Center
Tue 05:44:52 PM 35.8792 -93.8925 305° West 121 139 4,300 -200 Descending Memphis Center
Tue 05:45:52 PM 35.8972 -93.9214 308° West 116 133 4,200 -50 Descending Memphis Center
Tue 05:46:52 PM 35.9150 -93.9528 305° West 111 128 4,200  Level Memphis Center
Tue 05:48:00 PM 35.9498 -93.9461 North  Level FlightAware Approximate
Tue 05:55:00 PM 36.1350 -94.0875 321° Northwest  Level Estimated
Tue 05:56:00 PM 36.1667 -94.1101 270° West  Level FlightAware Approximate
Tue 05:57:00 PM 36.1667 -94.1167 270° West  Level FlightAware Approximate
Tue 05:58:00 PM 36.1764 -94.1192 270° West  Level Estimated
Tue 05:59:00 PM 36.1764 -94.1192 270° West  Level Estimated
Tue 06:00:00 PM 36.1764 -94.1192 270° West  Level Estimated
Tue 06:01:00 PM 36.1764 -94.1192 270° West  Level Estimated
Tue 06:02:00 PM 36.1764 -94.1192 270° West  Level Estimated
Tue 06:03:00 PM 36.1764 -94.1192 270° West  Level Estimated

Login

Don't have an account? Register now (free) for customized features, flight alerts, and more!